createdAt,value
2022-11-21T00:01:26.788Z,96.38
2022-11-21T00:03:54.133Z,82.25
2022-11-21T00:06:21.857Z,78.25
2022-11-21T00:08:49.034Z,84.22
2022-11-21T00:11:16.383Z,82.55
2022-11-21T00:13:44.241Z,75.45
2022-11-21T00:16:14.074Z,71.05
2022-11-21T00:18:42.615Z,88.82
2022-11-21T00:21:17.345Z,83.22
2022-11-21T00:23:45.899Z,80.15
2022-11-21T00:26:14.127Z,72.90
2022-11-21T00:28:41.229Z,74.47
2022-11-21T00:31:08.888Z,81.78
2022-11-21T00:33:37.358Z,72.03
2022-11-21T00:36:08.813Z,77.65
2022-11-21T00:38:35.981Z,70.30
2022-11-21T00:41:03.189Z,73.05
2022-11-21T00:43:29.959Z,71.90
2022-11-21T00:45:57.201Z,67.75
2022-11-21T00:48:24.488Z,79.95
2022-11-21T00:50:51.307Z,88.65
2022-11-21T00:53:18.412Z,75.22
2022-11-21T00:55:45.228Z,88.05
2022-11-21T00:58:12.296Z,85.13
2022-11-21T01:00:39.094Z,68.32
2022-11-21T01:03:05.915Z,81.40
2022-11-21T01:05:33.655Z,68.32
2022-11-21T01:08:00.857Z,59.83
2022-11-21T01:10:27.605Z,70.38
2022-11-21T01:12:54.413Z,62.90
2022-11-21T01:15:21.170Z,60.28
2022-11-21T01:17:48.362Z,72.88
2022-11-21T01:20:15.217Z,67.68
2022-11-21T01:22:42.428Z,66.38
2022-11-21T01:25:09.348Z,60.40
2022-11-21T01:27:36.315Z,60.92
2022-11-21T01:30:03.650Z,58.55
2022-11-21T01:32:30.420Z,60.50
2022-11-21T01:34:57.196Z,60.20
2022-11-21T01:37:24.036Z,56.10
2022-11-21T01:39:50.832Z,57.13
2022-11-21T01:42:18.163Z,54.65
2022-11-21T01:44:51.259Z,52.90
2022-11-21T01:47:18.484Z,56.30
2022-11-21T01:49:46.919Z,49.67
2022-11-21T01:52:26.542Z,55.63
2022-11-21T01:54:56.443Z,44.38
2022-11-21T01:57:35.446Z,51.92
2022-11-21T02:00:06.185Z,51.80
2022-11-21T02:02:37.183Z,52.25
2022-11-21T02:05:07.087Z,55.28
2022-11-21T02:07:40.033Z,56.85
2022-11-21T02:10:08.851Z,50.67
2022-11-21T02:12:52.058Z,60.78
2022-11-21T02:15:20.496Z,55.88
2022-11-21T02:17:47.775Z,56.70
2022-11-21T02:20:17.173Z,43.40
2022-11-21T02:22:58.682Z,53.33
2022-11-21T02:25:30.651Z,45.17
2022-11-21T02:28:05.919Z,41.70
2022-11-21T02:30:35.276Z,51.47
2022-11-21T02:33:02.814Z,51.13
2022-11-21T02:35:29.752Z,49.13
2022-11-21T02:38:20.698Z,55.92
2022-11-21T02:41:08.974Z,47.72
2022-11-21T02:43:45.050Z,48.35
2022-11-21T02:46:12.284Z,44.10
2022-11-21T02:48:39.329Z,43.95
2022-11-21T02:51:06.713Z,47.03
2022-11-21T02:53:33.957Z,53.13
2022-11-21T02:56:01.222Z,50.65
2022-11-21T02:58:28.484Z,45.40
2022-11-21T03:00:55.523Z,42.53
2022-11-21T03:03:23.012Z,41.97
2022-11-21T03:05:49.954Z,40.22
2022-11-21T03:08:17.107Z,43.15
2022-11-21T03:10:44.260Z,50.65
2022-11-21T03:13:11.046Z,36.88
2022-11-21T03:15:37.826Z,40.85
2022-11-21T03:18:05.586Z,39.30
2022-11-21T03:20:34.766Z,50.95
2022-11-21T03:23:02.814Z,45.70
2022-11-21T03:25:29.771Z,45.35
2022-11-21T03:27:56.548Z,42.63
2022-11-21T03:30:25.724Z,42.13
2022-11-21T03:32:56.560Z,44.33
2022-11-21T03:35:23.597Z,40.90
2022-11-21T03:37:50.478Z,41.13
2022-11-21T03:40:17.258Z,52.35
2022-11-21T03:42:44.616Z,42.63
2022-11-21T03:45:11.418Z,50.92
2022-11-21T03:47:38.670Z,52.72
2022-11-21T03:50:05.763Z,38.03
2022-11-21T03:52:32.836Z,42.70
2022-11-21T03:55:00.269Z,44.05
2022-11-21T03:57:27.191Z,51.10
2022-11-21T03:59:54.368Z,48.78
2022-11-21T04:02:21.145Z,48.83
2022-11-21T04:04:48.040Z,52.50
2022-11-21T04:07:15.305Z,49.47
2022-11-21T04:09:42.365Z,52.60
2022-11-21T04:12:09.121Z,45.97
2022-11-21T04:14:36.257Z,44.53
2022-11-21T04:17:03.045Z,45.72
2022-11-21T04:19:29.826Z,48.65
2022-11-21T04:21:56.661Z,42.33
2022-11-21T04:24:23.565Z,47.60
2022-11-21T04:26:50.931Z,49.80
2022-11-21T04:29:17.689Z,41.35
2022-11-21T04:31:44.915Z,46.00
2022-11-21T04:34:12.703Z,51.60
2022-11-21T04:36:39.520Z,53.15
2022-11-21T04:39:06.845Z,51.20
2022-11-21T04:41:33.668Z,46.60
2022-11-21T04:44:00.433Z,49.97
2022-11-21T04:46:27.797Z,49.53
2022-11-21T04:48:54.609Z,50.67
2022-11-21T04:51:21.852Z,49.88
2022-11-21T04:53:48.603Z,45.72
2022-11-21T04:56:16.645Z,55.85
2022-11-21T04:58:45.144Z,49.35
2022-11-21T05:01:12.744Z,49.53
2022-11-21T05:03:39.654Z,50.88
2022-11-21T05:06:06.417Z,52.15
2022-11-21T05:08:33.237Z,46.13
2022-11-21T05:11:19.132Z,60.38
2022-11-21T05:13:46.382Z,55.53
2022-11-21T05:16:13.549Z,46.67
2022-11-21T05:18:40.332Z,44.63
2022-11-21T05:21:07.535Z,45.00
2022-11-21T05:23:34.293Z,53.13
2022-11-21T05:26:01.084Z,48.92
2022-11-21T05:28:28.344Z,51.67
2022-11-21T05:30:55.613Z,44.78
2022-11-21T05:33:22.421Z,49.35
2022-11-21T05:35:50.977Z,50.22
2022-11-21T05:38:18.246Z,50.25
2022-11-21T05:40:45.044Z,47.28
2022-11-21T05:43:31.049Z,52.35
2022-11-21T05:45:58.550Z,48.35
2022-11-21T05:48:25.344Z,51.22
2022-11-21T05:50:52.594Z,48.72
2022-11-21T05:53:19.594Z,43.25
2022-11-21T05:55:46.945Z,38.92
2022-11-21T05:58:14.164Z,42.97
2022-11-21T06:00:43.219Z,43.60
2022-11-21T06:03:30.604Z,49.88
2022-11-21T06:06:14.190Z,48.67
2022-11-21T06:08:48.630Z,46.53
2022-11-21T06:11:17.876Z,43.35
2022-11-21T06:13:44.883Z,50.78
2022-11-21T06:16:17.350Z,39.80
2022-11-21T06:18:45.971Z,47.05
2022-11-21T06:21:22.153Z,43.50
2022-11-21T06:23:52.976Z,39.70
2022-11-21T06:26:22.057Z,46.55
2022-11-21T06:28:49.981Z,47.10
2022-11-21T06:31:19.696Z,44.05
2022-11-21T06:33:47.207Z,46.92
2022-11-21T06:36:16.757Z,43.03
2022-11-21T06:38:45.208Z,38.95
2022-11-21T06:41:20.901Z,46.70
2022-11-21T06:43:48.000Z,43.95
2022-11-21T06:46:16.244Z,49.92
2022-11-21T06:48:43.674Z,57.08
2022-11-21T06:51:17.107Z,43.90
2022-11-21T06:53:44.622Z,47.55
2022-11-21T06:56:11.387Z,47.10
2022-11-21T06:58:38.326Z,52.40
2022-11-21T07:01:07.396Z,44.38
2022-11-21T07:03:35.462Z,39.35
2022-11-21T07:06:03.193Z,41.35
2022-11-21T07:08:31.272Z,44.25
2022-11-21T07:11:24.580Z,44.13
2022-11-21T07:16:34.703Z,42.75
2022-11-21T07:19:03.246Z,42.58
2022-11-21T07:21:30.092Z,45.22
2022-11-21T07:23:56.919Z,41.03
2022-11-21T07:26:24.883Z,42.30
2022-11-21T07:28:51.652Z,35.78
2022-11-21T07:31:18.833Z,38.83
2022-11-21T07:33:46.949Z,40.40
2022-11-21T07:36:14.529Z,38.97
2022-11-21T07:38:41.918Z,38.70
2022-11-21T07:41:09.717Z,37.03
2022-11-21T07:43:37.115Z,37.63
2022-11-21T07:46:03.881Z,38.33
2022-11-21T07:48:30.663Z,37.20
2022-11-21T07:50:57.977Z,34.00
2022-11-21T07:53:24.756Z,38.53
2022-11-21T07:55:51.502Z,35.17
2022-11-21T07:58:18.753Z,43.55
2022-11-21T08:00:45.653Z,36.67
2022-11-21T08:03:13.714Z,46.22
2022-11-21T08:05:42.800Z,31.02
2022-11-21T08:08:14.297Z,45.47
2022-11-21T08:10:46.276Z,31.88
2022-11-21T08:13:13.820Z,38.15
2022-11-21T08:15:41.605Z,36.13
2022-11-21T08:18:22.448Z,28.38
2022-11-21T08:20:50.721Z,29.25
2022-11-21T08:23:17.796Z,38.45
2022-11-21T08:25:45.267Z,29.33
2022-11-21T08:28:12.809Z,24.52
2022-11-21T08:30:40.759Z,27.83
2022-11-21T08:33:07.638Z,28.65
2022-11-21T08:35:38.192Z,27.98
2022-11-21T08:38:05.931Z,27.75
2022-11-21T08:40:33.370Z,26.90
2022-11-21T08:43:06.030Z,39.17
2022-11-21T08:45:34.224Z,28.00
2022-11-21T08:48:01.452Z,24.50
2022-11-21T08:50:28.309Z,22.65
2022-11-21T08:53:02.003Z,23.48
2022-11-21T08:55:29.746Z,24.40
2022-11-21T08:57:56.992Z,22.52
2022-11-21T09:00:24.011Z,22.35
2022-11-21T09:02:51.277Z,23.50
2022-11-21T09:05:18.168Z,22.20
2022-11-21T09:07:45.486Z,24.80
2022-11-21T09:10:12.922Z,22.63
2022-11-21T09:12:39.713Z,20.77
2022-11-21T09:15:25.610Z,20.02
2022-11-21T09:18:05.135Z,23.75
2022-11-21T09:20:39.885Z,20.45
2022-11-21T09:23:08.264Z,22.23
2022-11-21T09:25:35.091Z,21.13
2022-11-21T09:28:03.072Z,18.75
2022-11-21T09:30:30.290Z,20.15
2022-11-21T09:33:01.680Z,21.02
2022-11-21T09:35:29.490Z,19.42
2022-11-21T09:37:56.326Z,16.08
2022-11-21T09:40:24.236Z,21.80
2022-11-21T09:43:26.826Z,17.45
2022-11-21T09:46:09.851Z,14.65
2022-11-21T09:48:59.152Z,13.75
2022-11-21T09:51:30.944Z,17.85
2022-11-21T09:54:12.097Z,15.48
2022-11-21T09:56:42.098Z,16.92
2022-11-21T09:59:38.962Z,21.52
2022-11-21T10:02:17.244Z,16.13
2022-11-21T10:04:47.199Z,13.27
2022-11-21T10:07:31.273Z,14.80
2022-11-21T10:10:18.911Z,16.27
2022-11-21T10:13:24.385Z,15.38
2022-11-21T10:16:11.437Z,13.95
2022-11-21T10:19:17.935Z,12.32
2022-11-21T10:22:07.531Z,12.80
2022-11-21T10:24:55.715Z,14.50
2022-11-21T10:27:39.599Z,12.32
2022-11-21T10:30:14.488Z,9.30
2022-11-21T10:32:45.787Z,13.95
2022-11-21T10:35:21.698Z,9.95
2022-11-21T10:38:01.556Z,9.35
2022-11-21T10:40:37.574Z,20.83
2022-11-21T10:43:35.344Z,7.63
2022-11-21T10:46:02.226Z,11.05
2022-11-21T10:48:29.015Z,8.55
2022-11-21T10:51:14.266Z,9.45
2022-11-21T10:54:06.136Z,10.93
2022-11-21T10:56:35.840Z,9.90
2022-11-21T10:59:27.082Z,12.32
2022-11-21T11:02:21.829Z,15.85
2022-11-21T11:04:52.330Z,12.50
2022-11-21T11:07:25.775Z,10.85
2022-11-21T11:09:59.456Z,14.13
2022-11-21T11:12:48.109Z,10.75
2022-11-21T11:15:21.437Z,11.98
2022-11-21T11:18:13.819Z,12.82
2022-11-21T11:20:44.259Z,7.95
2022-11-21T11:23:17.294Z,10.48
2022-11-21T11:25:49.937Z,6.43
2022-11-21T11:28:19.418Z,10.32
2022-11-21T11:30:47.809Z,6.78
2022-11-21T11:33:35.266Z,9.23
2022-11-21T11:36:14.169Z,9.65
2022-11-21T11:38:56.330Z,10.07
2022-11-21T11:42:13.785Z,10.75
2022-11-21T11:45:14.390Z,10.57
2022-11-21T11:47:55.091Z,10.65
2022-11-21T11:50:41.546Z,8.50
2022-11-21T11:53:38.489Z,7.65
2022-11-21T11:56:12.057Z,9.05
2022-11-21T11:58:53.325Z,10.52
2022-11-21T12:01:35.220Z,7.05
2022-11-21T12:04:13.087Z,7.50
2022-11-21T12:09:57.287Z,5.90
2022-11-21T12:12:34.492Z,9.77
2022-11-21T12:15:51.043Z,7.93
2022-11-21T12:18:17.850Z,9.15
2022-11-21T12:21:03.122Z,6.97
2022-11-21T12:24:02.267Z,10.07
2022-11-21T12:26:41.620Z,15.98
2022-11-21T12:29:28.071Z,13.50
2022-11-21T12:31:58.210Z,13.90
2022-11-21T12:35:08.132Z,12.35
2022-11-21T12:38:02.431Z,12.10
2022-11-21T12:40:53.848Z,14.20
2022-11-21T12:44:02.329Z,19.85
2022-11-21T12:46:42.953Z,17.30
2022-11-21T12:49:43.646Z,21.75
2022-11-21T12:52:55.264Z,20.83
2022-11-21T12:55:42.342Z,17.65
2022-11-21T12:58:17.881Z,21.77
2022-11-21T13:01:06.929Z,23.25
2022-11-21T13:03:55.160Z,19.02
2022-11-21T13:06:26.400Z,21.15
2022-11-21T13:08:55.541Z,20.15
2022-11-21T13:11:58.386Z,21.75
2022-11-21T13:14:53.355Z,21.67
2022-11-21T13:17:26.204Z,21.65
2022-11-21T13:20:15.495Z,18.05
2022-11-21T13:22:42.266Z,14.32
2022-11-21T13:25:41.019Z,17.92
2022-11-21T13:28:13.825Z,15.90
2022-11-21T13:30:54.679Z,13.63
2022-11-21T13:33:39.464Z,14.18
2022-11-21T13:36:06.924Z,13.52
2022-11-21T13:38:56.719Z,13.63
2022-11-21T13:41:54.750Z,11.32
2022-11-21T13:44:31.046Z,11.55
2022-11-21T13:47:02.742Z,13.52
2022-11-21T13:49:44.289Z,12.75
2022-11-21T13:52:32.339Z,13.52
2022-11-21T13:55:11.201Z,12.65
2022-11-21T13:57:47.977Z,16.08
2022-11-21T14:00:20.058Z,13.95
2022-11-21T14:03:08.781Z,21.25
2022-11-21T14:05:58.413Z,17.13
2022-11-21T14:08:29.329Z,10.63
2022-11-21T14:10:58.346Z,19.20
2022-11-21T14:13:32.975Z,14.77
2022-11-21T14:16:08.666Z,13.98
2022-11-21T14:18:39.024Z,13.27
2022-11-21T14:21:08.380Z,17.27
2022-11-21T14:23:35.729Z,14.05
2022-11-21T14:26:14.113Z,15.10
2022-11-21T14:28:44.494Z,16.25
2022-11-21T14:31:12.859Z,19.98
2022-11-21T14:33:44.371Z,15.60
2022-11-21T14:36:32.053Z,21.73
2022-11-21T14:39:35.318Z,19.40
2022-11-21T14:41:55.222Z,17.83
2022-11-21T14:44:26.906Z,21.40
2022-11-21T14:47:17.290Z,20.58
2022-11-21T14:49:59.601Z,22.05
2022-11-21T14:52:32.811Z,23.52
2022-11-21T14:55:36.462Z,19.58
2022-11-21T14:58:06.547Z,20.88
2022-11-21T15:03:23.117Z,24.90
2022-11-21T15:06:08.230Z,20.30
2022-11-21T15:09:33.415Z,25.85
2022-11-21T15:11:51.124Z,26.02
2022-11-21T15:14:39.269Z,26.25
2022-11-21T15:17:11.490Z,30.13
2022-11-21T15:19:38.570Z,30.08
2022-11-21T15:22:05.491Z,26.08
2022-11-21T15:24:43.384Z,25.20
2022-11-21T15:27:28.250Z,30.83
2022-11-21T15:30:10.871Z,37.30
2022-11-21T15:32:59.856Z,35.65
2022-11-21T15:35:39.109Z,32.60
2022-11-21T15:38:25.082Z,28.67
2022-11-21T15:41:10.689Z,28.38
2022-11-21T15:43:49.593Z,23.90
2022-11-21T15:46:28.173Z,30.48
2022-11-21T15:48:59.174Z,23.77
2022-11-21T15:52:05.487Z,27.15
2022-11-21T15:54:27.445Z,30.95
2022-11-21T15:56:54.504Z,22.55
2022-11-21T15:59:21.489Z,27.88
2022-11-21T16:01:48.751Z,22.00
2022-11-21T16:04:23.884Z,28.75
2022-11-21T16:06:52.413Z,25.75
2022-11-21T16:09:20.503Z,27.17
2022-11-21T16:11:50.114Z,26.38
2022-11-21T16:14:18.594Z,31.25
2022-11-21T16:16:47.705Z,30.67
2022-11-21T16:19:15.579Z,25.77
2022-11-21T16:21:44.285Z,30.48
2022-11-21T16:24:11.918Z,29.17
2022-11-21T16:26:39.134Z,28.50
2022-11-21T16:29:06.608Z,24.95
2022-11-21T16:31:33.994Z,26.70
2022-11-21T16:34:00.993Z,28.60
2022-11-21T16:36:32.553Z,24.63
2022-11-21T16:39:07.874Z,20.85
2022-11-21T16:41:36.552Z,24.23
2022-11-21T16:44:03.391Z,23.88
2022-11-21T16:46:30.722Z,25.17
2022-11-21T16:49:00.395Z,20.63
2022-11-21T16:51:27.448Z,19.67
2022-11-21T16:53:55.039Z,18.38
2022-11-21T16:56:21.848Z,18.85
2022-11-21T16:58:48.830Z,20.50
2022-11-21T17:01:22.083Z,21.17
2022-11-21T17:03:49.910Z,21.38
2022-11-21T17:06:23.421Z,18.13
2022-11-21T17:08:50.331Z,21.23
2022-11-21T17:11:28.712Z,19.45
2022-11-21T17:13:56.740Z,21.88
2022-11-21T17:16:23.820Z,19.88
2022-11-21T17:18:58.334Z,19.63
2022-11-21T17:21:26.838Z,23.42
2022-11-21T17:23:54.331Z,22.88
2022-11-21T17:26:23.422Z,23.23
2022-11-21T17:28:55.144Z,23.67
2022-11-21T17:31:22.629Z,28.42
2022-11-21T17:33:53.187Z,24.05
2022-11-21T17:36:24.930Z,22.65
2022-11-21T17:38:53.904Z,21.58
2022-11-21T17:41:22.556Z,24.13
2022-11-21T17:43:49.703Z,20.95
2022-11-21T17:46:18.566Z,24.50
2022-11-21T17:48:54.322Z,27.65
2022-11-21T17:51:24.320Z,18.45
2022-11-21T17:53:52.075Z,23.67
2022-11-21T17:56:21.511Z,24.55
2022-11-21T17:58:48.563Z,25.27
2022-11-21T18:01:19.950Z,24.83
2022-11-21T18:04:13.522Z,25.02
2022-11-21T18:06:42.321Z,21.90
2022-11-21T18:09:13.509Z,22.65
2022-11-21T18:11:40.782Z,26.85
2022-11-21T18:14:09.419Z,25.27
2022-11-21T18:16:36.519Z,21.15
2022-11-21T18:19:03.495Z,23.83
2022-11-21T18:21:32.686Z,22.38
2022-11-21T18:24:02.327Z,25.45
2022-11-21T18:26:35.124Z,16.77
2022-11-21T18:31:50.916Z,23.08
2022-11-21T18:34:18.261Z,22.67
2022-11-21T18:36:45.119Z,28.05
2022-11-21T18:39:15.758Z,21.10
2022-11-21T18:41:43.728Z,24.77
2022-11-21T18:44:12.674Z,20.88
2022-11-21T18:46:41.863Z,19.63
2022-11-21T18:49:18.377Z,23.08
2022-11-21T18:51:45.644Z,18.80
2022-11-21T18:54:13.565Z,21.08
2022-11-21T18:56:40.724Z,25.23
2022-11-21T18:59:10.156Z,24.80
2022-11-21T19:01:39.471Z,20.85
2022-11-21T19:04:06.534Z,24.83
2022-11-21T19:06:44.040Z,21.42
2022-11-21T19:09:13.931Z,21.88
2022-11-21T19:11:47.081Z,21.73
2022-11-21T19:14:19.011Z,21.17
2022-11-21T19:16:49.410Z,21.00
2022-11-21T19:25:04.415Z,23.83
2022-11-21T19:27:31.733Z,21.98
2022-11-21T19:30:00.767Z,22.88
2022-11-21T19:32:30.522Z,22.88
2022-11-21T19:35:00.794Z,21.88
2022-11-21T19:37:29.317Z,19.60
2022-11-21T19:39:59.178Z,19.17
2022-11-21T19:42:26.100Z,22.45
2022-11-21T19:44:53.436Z,22.45
2022-11-21T19:47:24.304Z,20.25
2022-11-21T19:49:54.742Z,20.55
2022-11-21T19:52:27.619Z,25.65
2022-11-21T19:54:56.170Z,23.52
2022-11-21T19:57:25.767Z,18.33
2022-11-21T19:59:57.066Z,24.55
2022-11-21T20:02:28.227Z,21.90
2022-11-21T20:04:58.072Z,27.33
2022-11-21T20:07:25.460Z,20.40
2022-11-21T20:09:52.832Z,22.63
2022-11-21T20:12:29.242Z,23.10
2022-11-21T20:14:56.515Z,23.67
2022-11-21T20:17:23.799Z,21.48
2022-11-21T20:19:52.151Z,24.45
2022-11-21T20:22:19.191Z,17.45
2022-11-21T20:24:51.504Z,17.67
2022-11-21T20:27:18.654Z,19.83
2022-11-21T20:29:45.491Z,18.05
2022-11-21T20:32:12.311Z,20.92
2022-11-21T20:34:39.743Z,18.33
2022-11-21T20:37:09.393Z,20.08
2022-11-21T20:39:36.210Z,20.67
2022-11-21T20:42:03.429Z,23.23
2022-11-21T20:47:22.043Z,22.48
2022-11-21T20:49:49.365Z,24.98
2022-11-21T20:53:49.701Z,25.38
2022-11-21T20:55:03.900Z,26.10
2022-11-21T20:57:32.378Z,21.13
2022-11-21T21:00:00.423Z,20.45
2022-11-21T21:02:27.612Z,21.63
2022-11-21T21:04:54.520Z,28.05
2022-11-21T21:07:21.601Z,25.75
2022-11-21T21:09:48.866Z,32.00
2022-11-21T21:12:16.066Z,26.27
2022-11-21T21:14:42.857Z,33.40
2022-11-21T21:17:10.069Z,28.75
2022-11-21T21:19:36.814Z,28.65
2022-11-21T21:22:05.195Z,26.33
2022-11-21T21:24:32.164Z,36.47
2022-11-21T21:26:59.094Z,28.25
2022-11-21T21:29:26.389Z,34.15
2022-11-21T21:31:53.384Z,29.13
2022-11-21T21:34:21.738Z,26.00
2022-11-21T21:36:50.061Z,27.45
2022-11-21T21:39:19.983Z,23.95
2022-11-21T21:41:48.761Z,25.92
2022-11-21T21:44:16.769Z,29.70
2022-11-21T21:46:46.068Z,36.45
2022-11-21T21:49:13.541Z,30.27
2022-11-21T21:51:41.157Z,27.13
2022-11-21T21:54:21.730Z,30.92
2022-11-21T21:56:50.125Z,35.65
2022-11-21T21:59:18.197Z,34.22
2022-11-21T22:01:46.934Z,36.78
2022-11-21T22:04:13.985Z,33.40
2022-11-21T22:06:41.452Z,42.97
2022-11-21T22:09:08.939Z,40.65
2022-11-21T22:11:40.478Z,37.95
2022-11-21T22:14:13.409Z,37.78
2022-11-21T22:16:43.290Z,41.13
2022-11-21T22:19:12.658Z,42.55
2022-11-21T22:21:39.857Z,40.28
2022-11-21T22:24:25.560Z,43.33
2022-11-21T22:26:54.174Z,37.47
2022-11-21T22:29:21.229Z,42.40
2022-11-21T22:31:48.046Z,38.97
2022-11-21T22:34:15.019Z,34.83
2022-11-21T22:36:42.348Z,40.78
2022-11-21T22:39:10.086Z,39.33
2022-11-21T22:41:37.147Z,41.83
2022-11-21T22:44:04.845Z,42.17
2022-11-21T22:46:34.251Z,42.33
2022-11-21T22:49:01.496Z,40.97
2022-11-21T22:51:30.042Z,42.20
2022-11-21T22:53:57.537Z,46.13
2022-11-21T22:56:25.530Z,41.63
2022-11-21T22:58:53.505Z,37.92
2022-11-21T23:01:25.677Z,41.60
2022-11-21T23:03:56.052Z,41.72
2022-11-21T23:06:27.068Z,36.08
2022-11-21T23:08:55.895Z,36.95
2022-11-21T23:11:28.726Z,36.58
2022-11-21T23:13:58.667Z,38.60
2022-11-21T23:16:26.392Z,45.80
2022-11-21T23:18:54.809Z,44.03
2022-11-21T23:21:21.969Z,50.83
2022-11-21T23:23:48.914Z,36.40
2022-11-21T23:26:16.527Z,43.78
2022-11-21T23:28:43.804Z,44.55
2022-11-21T23:31:13.969Z,41.70
2022-11-21T23:33:40.977Z,42.25
2022-11-21T23:36:08.719Z,37.80
2022-11-21T23:38:35.514Z,35.15
2022-11-21T23:41:02.945Z,34.30
2022-11-21T23:43:30.276Z,32.55
2022-11-21T23:46:00.224Z,40.45
2022-11-21T23:48:28.772Z,35.60
2022-11-21T23:50:55.639Z,34.63
2022-11-21T23:53:22.720Z,34.65
2022-11-21T23:55:50.702Z,39.50
2022-11-21T23:58:17.821Z,43.20
